Sardis, Georgia
Current Conditions -  °F | °C
As of 11:15 AM on Sunday 25 Jan 2015 (Local Time) from KJYL Reporting Station
Clear Clear  
Wind Chill: 53°   Ceiling: Unl
Heat Index: 53°   Visibility: 10mi
Dew Point: 37°   Wind: 5mph
Humidity: 55%   Direction: 290°WNW
Pressure: 30.02"   Gusts: NA
Location:  32.98°N, 81.76°W
Report Text: KJYL 251615Z AUTO 29004KT 10SM CLR 12/03 A3002 RMK AO2 T01150028
Loading
Personal Weather Stations






























Interactive Weather Map New forecast layout! Learn more

10-Day Weather Forecast

Advertisements
Track Severe Weather on mobile